createdAt,value
2018-04-01T00:00:37.709Z,4.70
2018-04-01T00:03:10.236Z,4.80
2018-04-01T00:05:42.544Z,4.80
2018-04-01T00:08:14.842Z,4.70
2018-04-01T00:10:47.059Z,4.70
2018-04-01T00:13:20.181Z,4.60
2018-04-01T00:15:52.694Z,4.60
2018-04-01T00:18:25.144Z,4.60
2018-04-01T00:20:58.249Z,4.60
2018-04-01T00:23:30.646Z,4.60
2018-04-01T00:26:02.906Z,4.60
2018-04-01T00:28:35.150Z,4.60
2018-04-01T00:31:08.154Z,4.40
2018-04-01T00:33:41.215Z,4.40
2018-04-01T00:36:14.374Z,4.40
2018-04-01T00:38:46.660Z,4.40
2018-04-01T00:41:19.020Z,4.40
2018-04-01T00:43:51.435Z,4.40
2018-04-01T00:46:23.804Z,4.40
2018-04-01T00:48:56.074Z,4.40
2018-04-01T00:51:29.125Z,4.40
2018-04-01T00:54:01.316Z,4.40
2018-04-01T00:56:33.546Z,4.40
2018-04-01T00:59:06.654Z,4.30
2018-04-01T01:01:38.838Z,4.30
2018-04-01T01:04:11.048Z,4.30
2018-04-01T01:06:43.341Z,4.40
2018-04-01T01:09:15.526Z,4.40
2018-04-01T01:11:48.056Z,4.40
2018-04-01T01:14:20.300Z,4.40
2018-04-01T01:16:52.681Z,4.30
2018-04-01T01:19:25.733Z,4.30
2018-04-01T01:21:58.612Z,4.30
2018-04-01T01:24:30.935Z,4.30
2018-04-01T01:27:03.112Z,4.20
2018-04-01T01:29:36.248Z,4.20
2018-04-01T01:32:08.589Z,4.20
2018-04-01T01:34:40.996Z,4.20
2018-04-01T01:37:13.850Z,4.20
2018-04-01T01:39:46.951Z,4.20
2018-04-01T01:42:19.035Z,4.20
2018-04-01T01:44:51.308Z,4.20
2018-04-01T01:47:23.601Z,4.10
2018-04-01T01:49:56.087Z,4.20
2018-04-01T01:52:28.444Z,4.20
2018-04-01T01:55:01.310Z,4.10
2018-04-01T01:57:34.565Z,4.10
2018-04-01T02:00:07.584Z,4.20
2018-04-01T02:02:40.007Z,4.10
2018-04-01T02:05:13.044Z,4.20
2018-04-01T02:07:46.381Z,4.30
2018-04-01T02:10:19.394Z,4.30
2018-04-01T02:12:51.641Z,4.20
2018-04-01T02:15:23.770Z,4.20
2018-04-01T02:17:55.951Z,4.20
2018-04-01T02:20:28.076Z,4.30
2018-04-01T02:23:00.285Z,4.30
2018-04-01T02:25:33.244Z,4.20
2018-04-01T02:28:06.385Z,4.30
2018-04-01T02:30:38.630Z,4.20
2018-04-01T02:33:11.746Z,4.20
2018-04-01T02:35:43.975Z,4.20
2018-04-01T02:38:16.847Z,4.10
2018-04-01T02:40:49.231Z,4.10
2018-04-01T02:43:21.371Z,4.20
2018-04-01T02:45:54.260Z,4.10
2018-04-01T02:48:26.522Z,4.10
2018-04-01T02:50:58.727Z,4.10
2018-04-01T02:53:31.765Z,4.20
2018-04-01T02:56:04.961Z,4.10
2018-04-01T02:58:37.981Z,4.20
2018-04-01T03:01:10.376Z,4.20
2018-04-01T03:03:43.400Z,4.20
2018-04-01T03:06:15.601Z,4.20
2018-04-01T03:08:47.786Z,4.20
2018-04-01T03:11:20.056Z,4.20
2018-04-01T03:13:52.210Z,4.10
2018-04-01T03:16:25.085Z,4.10
2018-04-01T03:18:57.221Z,4.10
2018-04-01T03:21:29.425Z,4.10
2018-04-01T03:24:01.580Z,4.10
2018-04-01T03:26:33.802Z,4.10
2018-04-01T03:29:06.827Z,4.10
2018-04-01T03:31:39.802Z,4.10
2018-04-01T03:34:12.101Z,4.10
2018-04-01T03:36:45.225Z,4.10
2018-04-01T03:39:17.465Z,4.00
2018-04-01T03:41:49.646Z,4.10
2018-04-01T03:44:22.037Z,4.10
2018-04-01T03:46:54.965Z,4.10
2018-04-01T03:49:27.501Z,4.10
2018-04-01T03:51:59.939Z,4.10
2018-04-01T03:54:32.189Z,4.10
2018-04-01T03:57:04.420Z,4.10
2018-04-01T03:59:36.801Z,4.00
2018-04-01T04:02:09.394Z,4.00
2018-04-01T04:04:41.780Z,4.00
2018-04-01T04:07:14.912Z,4.00
2018-04-01T04:09:48.056Z,4.00
2018-04-01T04:12:20.255Z,4.00
2018-04-01T04:14:52.510Z,4.00
2018-04-01T04:17:25.341Z,4.00
2018-04-01T04:19:57.630Z,3.90
2018-04-01T04:22:30.059Z,4.00
2018-04-01T04:25:02.220Z,4.00
2018-04-01T04:27:34.457Z,4.00
2018-04-01T04:30:07.811Z,3.90
2018-04-01T04:32:40.085Z,3.90
2018-04-01T04:35:12.365Z,4.00
2018-04-01T04:37:44.677Z,4.00
2018-04-01T04:40:16.790Z,3.90
2018-04-01T04:42:49.009Z,3.90
2018-04-01T04:45:21.907Z,3.80
2018-04-01T04:47:54.184Z,3.80
2018-04-01T04:50:27.262Z,3.80
2018-04-01T04:53:00.249Z,3.80
2018-04-01T04:55:33.495Z,3.90
2018-04-01T04:58:05.829Z,3.90
2018-04-01T05:00:38.097Z,3.90
2018-04-01T05:03:10.355Z,3.90
2018-04-01T05:05:42.924Z,3.90
2018-04-01T05:08:16.047Z,4.00
2018-04-01T05:10:48.382Z,4.00
2018-04-01T05:13:21.309Z,4.00
2018-04-01T05:15:53.660Z,4.00
2018-04-01T05:18:26.053Z,3.90
2018-04-01T05:20:58.965Z,3.90
2018-04-01T05:23:31.702Z,3.90
2018-04-01T05:26:04.526Z,4.00
2018-04-01T05:28:36.819Z,4.00
2018-04-01T05:31:09.154Z,4.00
2018-04-01T05:33:41.552Z,4.00
2018-04-01T05:36:14.559Z,3.90
2018-04-01T05:38:47.637Z,3.90
2018-04-01T05:41:21.092Z,3.90
2018-04-01T05:43:53.475Z,3.90
2018-04-01T05:46:25.856Z,3.80
2018-04-01T05:48:58.807Z,3.80
2018-04-01T05:51:31.354Z,3.80
2018-04-01T05:54:03.585Z,3.70
2018-04-01T05:56:35.802Z,3.70
2018-04-01T05:59:08.002Z,3.60
2018-04-01T06:01:40.162Z,3.50
2018-04-01T06:04:13.227Z,3.50
2018-04-01T06:06:46.200Z,3.50
2018-04-01T06:09:18.616Z,3.50
2018-04-01T06:11:51.620Z,3.50
2018-04-01T06:14:23.945Z,3.40
2018-04-01T06:16:56.360Z,3.40
2018-04-01T06:19:28.721Z,3.40
2018-04-01T06:22:01.153Z,3.30
2018-04-01T06:24:33.543Z,3.30
2018-04-01T06:27:06.745Z,3.10
2018-04-01T06:29:39.604Z,3.10
2018-04-01T06:32:11.882Z,3.10
2018-04-01T06:34:44.277Z,3.00
2018-04-01T06:37:16.665Z,2.90
2018-04-01T06:39:49.090Z,2.80
2018-04-01T06:42:22.160Z,2.70
2018-04-01T06:44:55.281Z,2.70
2018-04-01T06:47:27.626Z,2.70
2018-04-01T06:49:59.955Z,2.70
2018-04-01T06:52:32.289Z,2.70
2018-04-01T06:55:04.799Z,2.80
2018-04-01T06:57:37.128Z,2.80
2018-04-01T07:00:10.307Z,2.70
2018-04-01T07:02:43.245Z,2.80
2018-04-01T07:05:15.362Z,2.80
2018-04-01T07:07:48.544Z,2.90
2018-04-01T07:10:21.383Z,2.90
2018-04-01T07:12:53.780Z,2.90
2018-04-01T07:15:26.082Z,3.00
2018-04-01T07:17:58.313Z,3.00
2018-04-01T07:20:31.370Z,3.00
2018-04-01T07:23:03.772Z,3.00
2018-04-01T07:25:36.002Z,3.10
2018-04-01T07:28:08.514Z,3.10
2018-04-01T07:30:40.857Z,3.20
2018-04-01T07:33:13.411Z,3.20
2018-04-01T07:35:46.477Z,3.30
2018-04-01T07:38:18.940Z,3.20
2018-04-01T07:40:51.369Z,3.30
2018-04-01T07:43:24.312Z,3.40
2018-04-01T07:45:56.555Z,3.40
2018-04-01T07:48:29.666Z,3.50
2018-04-01T07:51:01.920Z,3.50
2018-04-01T07:53:34.294Z,3.50
2018-04-01T07:56:06.546Z,3.50
2018-04-01T07:58:39.581Z,3.60
2018-04-01T08:01:11.832Z,3.60
2018-04-01T08:03:44.292Z,3.70
2018-04-01T08:06:16.617Z,3.80
2018-04-01T08:08:49.006Z,3.90
2018-04-01T08:11:21.399Z,3.90
2018-04-01T08:13:53.730Z,3.90
2018-04-01T08:16:26.714Z,4.00
2018-04-01T08:18:58.933Z,4.00
2018-04-01T08:21:31.977Z,4.00
2018-04-01T08:24:04.482Z,4.00
2018-04-01T08:26:36.881Z,4.00
2018-04-01T08:29:09.242Z,4.10
2018-04-01T08:31:42.489Z,4.20
2018-04-01T08:34:14.989Z,4.20
2018-04-01T08:36:47.375Z,4.20
2018-04-01T08:39:19.582Z,4.20
2018-04-01T08:41:51.721Z,4.10
2018-04-01T08:44:24.095Z,4.10
2018-04-01T08:46:56.774Z,4.10
2018-04-01T08:49:29.027Z,4.00
2018-04-01T08:52:02.114Z,4.20
2018-04-01T08:54:34.477Z,4.10
2018-04-01T08:57:07.561Z,4.20
2018-04-01T08:59:39.835Z,4.10
2018-04-01T09:02:12.180Z,4.20
2018-04-01T09:04:45.056Z,4.60
2018-04-01T09:07:17.917Z,4.50
2018-04-01T09:09:50.202Z,4.80
2018-04-01T09:12:23.365Z,5.20
2018-04-01T09:14:55.777Z,5.10
2018-04-01T09:17:28.305Z,5.00
2018-04-01T09:20:00.764Z,5.10
2018-04-01T09:22:33.027Z,5.00
2018-04-01T09:25:05.305Z,4.90
2018-04-01T09:27:39.282Z,4.80
2018-04-01T09:30:11.638Z,4.80
2018-04-01T09:32:45.359Z,4.70
2018-04-01T09:35:18.386Z,4.70
2018-04-01T09:37:50.770Z,4.70
2018-04-01T09:40:23.742Z,4.70
2018-04-01T09:42:55.932Z,4.70
2018-04-01T09:45:28.228Z,4.60
2018-04-01T09:48:00.561Z,4.60
2018-04-01T09:50:32.743Z,4.70
2018-04-01T09:53:04.986Z,4.60
2018-04-01T09:55:37.417Z,4.60
2018-04-01T09:58:10.560Z,4.30
2018-04-01T10:00:49.897Z,4.20
2018-04-01T10:03:23.156Z,3.90
2018-04-01T10:05:56.018Z,3.90
2018-04-01T10:08:28.510Z,3.80
2018-04-01T10:11:01.227Z,3.70
2018-04-01T10:13:33.840Z,3.70
2018-04-01T10:16:06.435Z,3.80
2018-04-01T10:18:39.169Z,3.90
2018-04-01T10:21:12.679Z,4.00
2018-04-01T10:23:45.265Z,3.90
2018-04-01T10:26:18.002Z,4.00
2018-04-01T10:28:57.776Z,4.10
2018-04-01T10:31:30.456Z,4.00
2018-04-01T10:34:03.065Z,4.10
2018-04-01T10:36:36.407Z,4.50
2018-04-01T10:39:09.383Z,4.50
2018-04-01T10:41:42.222Z,4.60
2018-04-01T10:44:14.831Z,4.90
2018-04-01T10:46:48.106Z,5.40
2018-04-01T10:49:21.963Z,5.70
2018-04-01T10:51:54.453Z,5.70
2018-04-01T10:54:26.651Z,5.90
2018-04-01T10:56:58.804Z,6.00
2018-04-01T10:59:31.325Z,6.20
2018-04-01T11:02:04.338Z,6.00
2018-04-01T11:04:36.757Z,5.90
2018-04-01T11:07:08.992Z,5.90
2018-04-01T11:09:41.802Z,5.90
2018-04-01T11:12:14.092Z,6.00
2018-04-01T11:14:46.346Z,6.10
2018-04-01T11:17:18.551Z,6.10
2018-04-01T11:19:50.696Z,6.10
2018-04-01T11:22:23.082Z,6.30
2018-04-01T11:24:55.945Z,6.50
2018-04-01T11:27:28.993Z,6.10
2018-04-01T11:30:01.199Z,6.00
2018-04-01T11:32:33.582Z,6.00
2018-04-01T11:35:05.957Z,6.00
2018-04-01T11:37:39.161Z,6.10
2018-04-01T11:40:11.730Z,6.10
2018-04-01T11:42:43.868Z,6.20
2018-04-01T11:45:16.227Z,6.30
2018-04-01T11:47:48.477Z,6.30
2018-04-01T11:50:20.763Z,6.40
2018-04-01T11:52:53.148Z,6.20
2018-04-01T11:55:25.713Z,6.30
2018-04-01T11:57:57.922Z,6.20
2018-04-01T12:00:30.073Z,6.50
2018-04-01T12:03:02.493Z,6.60
2018-04-01T12:05:34.631Z,6.80
2018-04-01T12:08:06.794Z,7.00
2018-04-01T12:10:39.269Z,6.90
2018-04-01T12:13:11.754Z,6.70
2018-04-01T12:15:44.093Z,6.70
2018-04-01T12:18:16.507Z,6.80
2018-04-01T12:20:48.973Z,6.80
2018-04-01T12:23:21.392Z,7.10
2018-04-01T12:25:53.772Z,7.10
2018-04-01T12:28:26.264Z,7.00
2018-04-01T12:30:58.592Z,7.10
2018-04-01T12:33:30.897Z,7.10
2018-04-01T12:36:03.139Z,7.20
2018-04-01T12:38:35.461Z,7.30
2018-04-01T12:41:08.142Z,7.20
2018-04-01T12:43:40.441Z,7.30
2018-04-01T12:46:13.503Z,7.40
2018-04-01T12:48:45.764Z,7.40
2018-04-01T12:51:18.132Z,7.70
2018-04-01T12:53:51.028Z,8.20
2018-04-01T12:56:23.370Z,8.10
2018-04-01T12:58:56.024Z,8.20
2018-04-01T13:01:28.341Z,8.20
2018-04-01T13:04:01.375Z,8.00
2018-04-01T13:06:33.629Z,8.00
2018-04-01T13:09:06.825Z,7.60
2018-04-01T13:11:39.021Z,7.60
2018-04-01T13:14:11.936Z,7.40
2018-04-01T13:16:44.273Z,7.50
2018-04-01T13:19:17.330Z,7.40
2018-04-01T13:21:49.531Z,7.40
2018-04-01T13:24:21.798Z,7.50
2018-04-01T13:26:54.109Z,7.50
2018-04-01T13:29:26.582Z,7.60
2018-04-01T13:31:59.011Z,7.70
2018-04-01T13:34:32.101Z,7.80
2018-04-01T13:37:05.254Z,8.00
2018-04-01T13:39:38.253Z,8.10
2018-04-01T13:42:10.477Z,8.00
2018-04-01T13:44:43.434Z,8.10
2018-04-01T13:47:15.700Z,8.10
2018-04-01T13:49:47.891Z,8.00
2018-04-01T13:52:20.049Z,7.90
2018-04-01T13:54:52.461Z,8.10
2018-04-01T13:57:24.847Z,8.30
2018-04-01T13:59:57.286Z,8.40
2018-04-01T14:02:29.676Z,8.40
2018-04-01T14:05:01.919Z,8.50
2018-04-01T14:07:34.227Z,8.50
2018-04-01T14:10:06.417Z,8.40
2018-04-01T14:12:38.577Z,8.40
2018-04-01T14:15:10.794Z,8.30
2018-04-01T14:17:43.273Z,8.40
2018-04-01T14:20:15.737Z,8.20
2018-04-01T14:22:48.778Z,8.00
2018-04-01T14:25:21.093Z,8.00
2018-04-01T14:27:53.232Z,7.90
2018-04-01T14:30:25.621Z,7.90
2018-04-01T14:32:58.784Z,7.70
2018-04-01T14:35:30.967Z,7.70
2018-04-01T14:38:03.361Z,7.80
2018-04-01T14:40:37.688Z,7.90
2018-04-01T14:43:09.865Z,7.90
2018-04-01T14:45:42.118Z,7.70
2018-04-01T14:48:14.568Z,7.50
2018-04-01T14:50:46.947Z,7.50
2018-04-01T14:53:19.397Z,7.40
2018-04-01T14:55:51.573Z,7.50
2018-04-01T14:58:24.684Z,7.80
2018-04-01T15:00:56.978Z,8.00
2018-04-01T15:03:29.540Z,8.30
2018-04-01T15:06:01.969Z,8.60
2018-04-01T15:08:35.306Z,8.90
2018-04-01T15:11:08.368Z,9.10
2018-04-01T15:13:40.643Z,9.10
2018-04-01T15:16:12.862Z,9.60
2018-04-01T15:18:45.332Z,9.80
2018-04-01T15:21:17.914Z,10.20
2018-04-01T15:23:50.114Z,11.00
2018-04-01T15:26:23.366Z,11.40
2018-04-01T15:28:55.478Z,11.40
2018-04-01T15:31:27.734Z,11.50
2018-04-01T15:34:00.214Z,11.40
2018-04-01T15:36:32.552Z,11.00
2018-04-01T15:39:05.059Z,10.90
2018-04-01T15:41:37.510Z,10.80
2018-04-01T15:44:10.037Z,10.80
2018-04-01T15:46:42.299Z,11.00
2018-04-01T15:49:14.570Z,11.40
2018-04-01T15:51:47.527Z,11.80
2018-04-01T15:54:19.759Z,11.80
2018-04-01T15:56:52.007Z,12.10
2018-04-01T15:59:24.344Z,12.50
2018-04-01T16:01:56.897Z,13.00
2018-04-01T16:04:29.294Z,13.40
2018-04-01T16:07:01.564Z,13.80
2018-04-01T16:09:33.972Z,14.10
2018-04-01T16:12:06.117Z,14.60
2018-04-01T16:14:38.658Z,14.60
2018-04-01T16:17:11.093Z,14.60
2018-04-01T16:19:44.097Z,14.50
2018-04-01T16:22:17.228Z,14.70
2018-04-01T16:24:49.584Z,14.70
2018-04-01T16:27:21.732Z,14.60
2018-04-01T16:29:53.947Z,14.30
2018-04-01T16:32:26.272Z,14.00
2018-04-01T16:34:58.695Z,13.90
2018-04-01T16:37:30.914Z,13.70
2018-04-01T16:40:03.945Z,13.90
2018-04-01T16:42:36.479Z,13.90
2018-04-01T16:45:08.682Z,13.70
2018-04-01T16:47:47.790Z,13.30
2018-04-01T16:50:20.019Z,12.40
2018-04-01T16:52:52.524Z,11.30
2018-04-01T16:55:24.900Z,10.60
2018-04-01T16:57:57.274Z,9.80
2018-04-01T17:00:29.638Z,9.40
2018-04-01T17:03:01.863Z,9.00
2018-04-01T17:05:34.519Z,8.80
2018-04-01T17:08:07.794Z,8.40
2018-04-01T17:10:40.060Z,8.30
2018-04-01T17:13:12.304Z,8.10
2018-04-01T17:15:45.464Z,7.80
2018-04-01T17:18:18.486Z,7.70
2018-04-01T17:20:51.504Z,7.50
2018-04-01T17:23:24.437Z,7.30
2018-04-01T17:25:56.648Z,7.30
2018-04-01T17:28:28.978Z,7.20
2018-04-01T17:31:01.693Z,7.10
2018-04-01T17:33:34.002Z,7.00
2018-04-01T17:36:06.328Z,6.80
2018-04-01T17:38:40.211Z,6.70
2018-04-01T17:41:12.425Z,6.70
2018-04-01T17:43:44.672Z,6.60
2018-04-01T17:46:17.193Z,6.50
2018-04-01T17:48:49.584Z,6.50
2018-04-01T17:51:21.842Z,6.50
2018-04-01T17:53:54.212Z,6.50
2018-04-01T17:56:26.537Z,6.50
2018-04-01T17:58:58.909Z,6.50
2018-04-01T18:01:31.259Z,6.50
2018-04-01T18:04:04.334Z,6.40
2018-04-01T18:06:37.698Z,6.30
2018-04-01T18:09:11.414Z,6.30
2018-04-01T18:11:43.877Z,6.30
2018-04-01T18:14:17.026Z,6.30
2018-04-01T18:16:50.173Z,6.40
2018-04-01T18:19:23.319Z,6.40
2018-04-01T18:21:55.648Z,6.30
2018-04-01T18:24:28.824Z,6.20
2018-04-01T18:27:01.230Z,6.20
2018-04-01T18:29:33.527Z,6.20
2018-04-01T18:32:06.121Z,6.20
2018-04-01T18:34:38.355Z,6.20
2018-04-01T18:37:10.797Z,6.30
2018-04-01T18:39:43.189Z,6.30
2018-04-01T18:42:15.630Z,6.20
2018-04-01T18:44:47.962Z,6.30
2018-04-01T18:47:20.294Z,6.20
2018-04-01T18:49:52.573Z,6.20
2018-04-01T18:52:25.090Z,6.20
2018-04-01T18:54:58.253Z,6.10
2018-04-01T18:57:30.504Z,6.10
2018-04-01T19:00:02.843Z,6.10
2018-04-01T19:02:35.705Z,6.00
2018-04-01T19:05:11.543Z,5.90
2018-04-01T19:07:44.368Z,6.00
2018-04-01T19:10:16.493Z,5.90
2018-04-01T19:12:49.641Z,5.90
2018-04-01T19:15:22.209Z,5.90
2018-04-01T19:17:54.897Z,5.90
2018-04-01T19:20:27.713Z,5.80
2018-04-01T19:23:00.234Z,5.80
2018-04-01T19:25:33.052Z,5.80
2018-04-01T19:28:05.522Z,5.80
2018-04-01T19:30:38.129Z,5.80
2018-04-01T19:33:10.788Z,5.80
2018-04-01T19:35:43.932Z,5.80
2018-04-01T19:38:16.469Z,5.80
2018-04-01T19:40:49.098Z,5.80
2018-04-01T19:43:21.974Z,5.80
2018-04-01T19:45:54.418Z,5.80
2018-04-01T19:48:31.149Z,5.80
2018-04-01T19:51:03.984Z,5.80
2018-04-01T19:53:36.666Z,5.80
2018-04-01T19:56:09.889Z,5.80
2018-04-01T19:58:42.771Z,5.80
2018-04-01T20:01:17.062Z,5.80
2018-04-01T20:03:49.757Z,5.80
2018-04-01T20:06:22.314Z,5.80
2018-04-01T20:08:54.971Z,5.80
2018-04-01T20:11:27.533Z,5.80
2018-04-01T20:14:00.246Z,5.70
2018-04-01T20:16:32.724Z,5.80
2018-04-01T20:19:05.219Z,5.80
2018-04-01T20:21:38.070Z,5.80
2018-04-01T20:24:10.854Z,5.80
2018-04-01T20:26:43.346Z,5.80
2018-04-01T20:29:21.842Z,5.80
2018-04-01T20:31:54.449Z,5.80
2018-04-01T20:34:27.050Z,5.80
2018-04-01T20:37:01.913Z,5.80
2018-04-01T20:39:35.378Z,5.80
2018-04-01T20:42:08.001Z,5.80
2018-04-01T20:44:41.653Z,5.80
2018-04-01T20:47:14.150Z,5.80
2018-04-01T20:49:47.204Z,5.80
2018-04-01T20:52:20.622Z,5.80
2018-04-01T20:54:54.022Z,5.80
2018-04-01T20:57:26.655Z,5.70
2018-04-01T20:59:59.389Z,5.80
2018-04-01T21:02:31.909Z,5.80
2018-04-01T21:05:04.474Z,5.80
2018-04-01T21:07:37.243Z,5.80
2018-04-01T21:10:11.191Z,5.80
2018-04-01T21:12:44.972Z,5.80
2018-04-01T21:15:17.551Z,5.80
2018-04-01T21:17:50.319Z,5.70
2018-04-01T21:20:22.778Z,5.60
2018-04-01T21:22:55.223Z,5.60
2018-04-01T21:25:27.665Z,5.60
2018-04-01T21:28:00.295Z,5.60
2018-04-01T21:30:32.948Z,5.60
2018-04-01T21:33:05.407Z,5.50
2018-04-01T21:35:38.015Z,5.50
2018-04-01T21:38:10.735Z,5.50
2018-04-01T21:40:43.481Z,5.50
2018-04-01T21:43:16.719Z,5.50
2018-04-01T21:45:49.190Z,5.50
2018-04-01T21:48:21.785Z,5.50
2018-04-01T21:50:54.859Z,5.50
2018-04-01T21:53:27.498Z,5.50
2018-04-01T21:56:00.111Z,5.50
2018-04-01T21:58:33.520Z,5.50
2018-04-01T22:01:05.993Z,5.60
2018-04-01T22:03:38.836Z,5.60
2018-04-01T22:06:11.395Z,5.60
2018-04-01T22:08:44.153Z,5.50
2018-04-01T22:11:16.921Z,5.50
2018-04-01T22:13:49.474Z,5.60
2018-04-01T22:16:22.375Z,5.60
2018-04-01T22:18:54.970Z,5.60
2018-04-01T22:21:27.674Z,5.60
2018-04-01T22:24:00.119Z,5.60
2018-04-01T22:26:32.594Z,5.60
2018-04-01T22:29:06.030Z,5.50
2018-04-01T22:31:38.574Z,5.50
2018-04-01T22:34:11.116Z,5.50
2018-04-01T22:36:43.904Z,5.50
2018-04-01T22:39:16.592Z,5.50
2018-04-01T22:41:49.150Z,5.50
2018-04-01T22:44:22.380Z,5.40
2018-04-01T22:46:55.718Z,5.40
2018-04-01T22:49:28.193Z,5.40
2018-04-01T22:52:01.414Z,5.30
2018-04-01T22:54:33.986Z,5.30
2018-04-01T22:57:06.586Z,5.30
2018-04-01T22:59:38.992Z,5.30
2018-04-01T23:02:11.618Z,5.20
2018-04-01T23:04:44.135Z,5.20
2018-04-01T23:07:17.416Z,5.10
2018-04-01T23:09:50.024Z,5.20
2018-04-01T23:12:22.749Z,5.10
2018-04-01T23:14:56.120Z,5.10
2018-04-01T23:17:28.564Z,5.10
2018-04-01T23:20:00.931Z,5.10
2018-04-01T23:22:34.093Z,5.20
2018-04-01T23:25:07.248Z,5.20
2018-04-01T23:27:39.895Z,5.20
2018-04-01T23:30:12.458Z,5.20
2018-04-01T23:32:45.133Z,5.30
2018-04-01T23:35:18.570Z,5.30
2018-04-01T23:37:51.840Z,5.30
2018-04-01T23:40:25.190Z,5.30
2018-04-01T23:42:57.800Z,5.30
2018-04-01T23:45:30.409Z,5.30
2018-04-01T23:48:03.103Z,5.30
2018-04-01T23:50:35.484Z,5.30
2018-04-01T23:53:08.251Z,5.30
2018-04-01T23:55:41.682Z,5.30
2018-04-01T23:58:14.826Z,5.30
